sensor_id;sensor_type;location;lat;lon;timestamp;P1;durP1;ratioP1;P2;durP2;ratioP2
5175;SDS011;2607;50.934;6.934;2023-02-15T00:00:52;28.17;;;17.17;;
5175;SDS011;2607;50.934;6.934;2023-02-15T00:03:20;29.23;;;17.90;;
5175;SDS011;2607;50.934;6.934;2023-02-15T00:05:46;27.50;;;17.10;;
5175;SDS011;2607;50.934;6.934;2023-02-15T00:08:11;22.90;;;16.63;;
5175;SDS011;2607;50.934;6.934;2023-02-15T00:10:37;23.40;;;17.17;;
5175;SDS011;2607;50.934;6.934;2023-02-15T00:13:02;24.23;;;15.70;;
5175;SDS011;2607;50.934;6.934;2023-02-15T00:15:28;26.20;;;16.77;;
5175;SDS011;2607;50.934;6.934;2023-02-15T00:17:54;30.43;;;17.60;;
5175;SDS011;2607;50.934;6.934;2023-02-15T00:20:19;24.93;;;16.43;;
5175;SDS011;2607;50.934;6.934;2023-02-15T00:22:45;25.20;;;16.83;;
5175;SDS011;2607;50.934;6.934;2023-02-15T00:25:10;26.20;;;17.40;;
5175;SDS011;2607;50.934;6.934;2023-02-15T00:27:36;23.80;;;16.50;;
5175;SDS011;2607;50.934;6.934;2023-02-15T00:30:01;28.47;;;16.77;;
5175;SDS011;2607;50.934;6.934;2023-02-15T00:32:27;25.90;;;17.20;;
5175;SDS011;2607;50.934;6.934;2023-02-15T00:34:53;24.63;;;15.63;;
5175;SDS011;2607;50.934;6.934;2023-02-15T00:37:18;30.17;;;17.20;;
5175;SDS011;2607;50.934;6.934;2023-02-15T00:39:44;27.50;;;17.23;;
5175;SDS011;2607;50.934;6.934;2023-02-15T00:42:09;27.10;;;17.00;;
5175;SDS011;2607;50.934;6.934;2023-02-15T00:44:35;23.97;;;15.73;;
5175;SDS011;2607;50.934;6.934;2023-02-15T00:47:00;29.10;;;17.17;;
5175;SDS011;2607;50.934;6.934;2023-02-15T00:49:26;25.33;;;15.70;;
5175;SDS011;2607;50.934;6.934;2023-02-15T00:51:51;25.50;;;16.30;;
5175;SDS011;2607;50.934;6.934;2023-02-15T00:54:17;25.63;;;16.23;;
5175;SDS011;2607;50.934;6.934;2023-02-15T00:56:42;27.23;;;17.00;;
5175;SDS011;2607;50.934;6.934;2023-02-15T00:59:08;27.00;;;17.30;;
5175;SDS011;2607;50.934;6.934;2023-02-15T01:01:34;25.23;;;16.20;;
5175;SDS011;2607;50.934;6.934;2023-02-15T01:03:59;26.13;;;16.73;;
5175;SDS011;2607;50.934;6.934;2023-02-15T01:06:26;24.07;;;15.60;;
5175;SDS011;2607;50.934;6.934;2023-02-15T01:08:51;26.43;;;16.83;;
5175;SDS011;2607;50.934;6.934;2023-02-15T01:11:18;22.57;;;15.50;;
5175;SDS011;2607;50.934;6.934;2023-02-15T01:13:47;26.10;;;16.60;;
5175;SDS011;2607;50.934;6.934;2023-02-15T01:16:13;26.50;;;16.47;;
5175;SDS011;2607;50.934;6.934;2023-02-15T01:18:39;26.93;;;16.43;;
5175;SDS011;2607;50.934;6.934;2023-02-15T01:21:14;22.80;;;15.67;;
5175;SDS011;2607;50.934;6.934;2023-02-15T01:23:42;26.20;;;16.33;;
5175;SDS011;2607;50.934;6.934;2023-02-15T01:26:08;24.90;;;16.70;;
5175;SDS011;2607;50.934;6.934;2023-02-15T01:28:34;26.03;;;16.97;;
5175;SDS011;2607;50.934;6.934;2023-02-15T01:31:04;25.87;;;16.67;;
5175;SDS011;2607;50.934;6.934;2023-02-15T01:33:30;26.80;;;16.47;;
5175;SDS011;2607;50.934;6.934;2023-02-15T01:35:56;26.87;;;16.30;;
5175;SDS011;2607;50.934;6.934;2023-02-15T01:38:22;25.17;;;16.47;;
5175;SDS011;2607;50.934;6.934;2023-02-15T01:40:50;26.17;;;16.50;;
5175;SDS011;2607;50.934;6.934;2023-02-15T01:43:17;27.17;;;17.20;;
5175;SDS011;2607;50.934;6.934;2023-02-15T01:45:43;31.73;;;15.97;;
5175;SDS011;2607;50.934;6.934;2023-02-15T01:48:19;27.07;;;16.67;;
5175;SDS011;2607;50.934;6.934;2023-02-15T01:50:51;27.87;;;17.20;;
5175;SDS011;2607;50.934;6.934;2023-02-15T01:53:29;25.10;;;15.40;;
5175;SDS011;2607;50.934;6.934;2023-02-15T01:56:02;22.27;;;14.80;;
5175;SDS011;2607;50.934;6.934;2023-02-15T01:58:34;25.60;;;15.97;;
5175;SDS011;2607;50.934;6.934;2023-02-15T02:01:01;22.50;;;15.50;;
5175;SDS011;2607;50.934;6.934;2023-02-15T02:04:12;26.47;;;16.10;;
5175;SDS011;2607;50.934;6.934;2023-02-15T02:06:33;24.40;;;15.10;;
5175;SDS011;2607;50.934;6.934;2023-02-15T02:09:00;30.50;;;17.53;;
5175;SDS011;2607;50.934;6.934;2023-02-15T02:11:26;33.20;;;17.43;;
5175;SDS011;2607;50.934;6.934;2023-02-15T02:13:52;27.40;;;17.00;;
5175;SDS011;2607;50.934;6.934;2023-02-15T02:21:49;23.90;;;15.03;;
5175;SDS011;2607;50.934;6.934;2023-02-15T02:24:41;25.17;;;16.63;;
5175;SDS011;2607;50.934;6.934;2023-02-15T02:32:43;25.47;;;15.00;;
5175;SDS011;2607;50.934;6.934;2023-02-15T02:35:32;25.07;;;15.10;;
5175;SDS011;2607;50.934;6.934;2023-02-15T02:46:48;21.70;;;14.70;;
5175;SDS011;2607;50.934;6.934;2023-02-15T02:49:28;21.80;;;14.30;;
5175;SDS011;2607;50.934;6.934;2023-02-15T02:52:03;24.50;;;14.57;;
5175;SDS011;2607;50.934;6.934;2023-02-15T02:54:32;22.17;;;14.33;;
5175;SDS011;2607;50.934;6.934;2023-02-15T02:57:01;26.70;;;15.47;;
5175;SDS011;2607;50.934;6.934;2023-02-15T02:59:33;22.37;;;13.87;;
5175;SDS011;2607;50.934;6.934;2023-02-15T03:02:07;22.40;;;14.87;;
5175;SDS011;2607;50.934;6.934;2023-02-15T03:04:51;23.50;;;15.87;;
5175;SDS011;2607;50.934;6.934;2023-02-15T03:07:23;23.07;;;14.63;;
5175;SDS011;2607;50.934;6.934;2023-02-15T03:09:53;23.87;;;14.67;;
5175;SDS011;2607;50.934;6.934;2023-02-15T03:12:31;24.10;;;15.20;;
5175;SDS011;2607;50.934;6.934;2023-02-15T03:15:01;22.70;;;14.53;;
5175;SDS011;2607;50.934;6.934;2023-02-15T03:17:32;21.40;;;14.77;;
5175;SDS011;2607;50.934;6.934;2023-02-15T03:20:02;23.50;;;14.77;;
5175;SDS011;2607;50.934;6.934;2023-02-15T03:22:37;23.47;;;15.03;;
5175;SDS011;2607;50.934;6.934;2023-02-15T03:25:18;22.50;;;14.50;;
5175;SDS011;2607;50.934;6.934;2023-02-15T03:27:52;22.07;;;14.20;;
5175;SDS011;2607;50.934;6.934;2023-02-15T03:30:20;25.80;;;15.33;;
5175;SDS011;2607;50.934;6.934;2023-02-15T03:32:48;23.70;;;15.37;;
5175;SDS011;2607;50.934;6.934;2023-02-15T03:35:15;22.03;;;14.07;;
5175;SDS011;2607;50.934;6.934;2023-02-15T03:37:52;23.63;;;14.93;;
5175;SDS011;2607;50.934;6.934;2023-02-15T03:40:26;26.37;;;14.93;;
5175;SDS011;2607;50.934;6.934;2023-02-15T03:48:58;21.40;;;13.30;;
5175;SDS011;2607;50.934;6.934;2023-02-15T03:51:29;23.00;;;13.87;;
5175;SDS011;2607;50.934;6.934;2023-02-15T03:54:02;24.40;;;14.77;;
5175;SDS011;2607;50.934;6.934;2023-02-15T03:56:30;21.20;;;13.90;;
5175;SDS011;2607;50.934;6.934;2023-02-15T03:58:58;21.93;;;13.93;;
5175;SDS011;2607;50.934;6.934;2023-02-15T04:01:47;24.27;;;15.30;;
5175;SDS011;2607;50.934;6.934;2023-02-15T04:04:38;22.97;;;14.47;;
5175;SDS011;2607;50.934;6.934;2023-02-15T04:07:07;22.13;;;14.23;;
5175;SDS011;2607;50.934;6.934;2023-02-15T04:09:34;22.67;;;14.70;;
5175;SDS011;2607;50.934;6.934;2023-02-15T04:12:19;25.00;;;14.23;;
5175;SDS011;2607;50.934;6.934;2023-02-15T04:14:44;23.63;;;14.60;;
5175;SDS011;2607;50.934;6.934;2023-02-15T04:17:28;25.23;;;14.33;;
5175;SDS011;2607;50.934;6.934;2023-02-15T04:19:54;22.67;;;13.90;;
5175;SDS011;2607;50.934;6.934;2023-02-15T04:22:39;19.33;;;13.20;;
5175;SDS011;2607;50.934;6.934;2023-02-15T04:25:22;25.13;;;15.07;;
5175;SDS011;2607;50.934;6.934;2023-02-15T04:27:50;28.73;;;16.00;;
5175;SDS011;2607;50.934;6.934;2023-02-15T04:30:18;22.83;;;14.60;;
5175;SDS011;2607;50.934;6.934;2023-02-15T04:32:45;20.80;;;13.03;;
5175;SDS011;2607;50.934;6.934;2023-02-15T04:35:12;25.17;;;15.60;;
5175;SDS011;2607;50.934;6.934;2023-02-15T04:37:39;22.03;;;14.03;;
5175;SDS011;2607;50.934;6.934;2023-02-15T04:40:06;22.43;;;13.50;;
5175;SDS011;2607;50.934;6.934;2023-02-15T04:42:33;24.50;;;15.03;;
5175;SDS011;2607;50.934;6.934;2023-02-15T04:44:58;19.90;;;13.13;;
5175;SDS011;2607;50.934;6.934;2023-02-15T04:47:24;22.17;;;13.87;;
5175;SDS011;2607;50.934;6.934;2023-02-15T04:49:49;21.10;;;14.37;;
5175;SDS011;2607;50.934;6.934;2023-02-15T04:52:15;25.60;;;15.07;;
5175;SDS011;2607;50.934;6.934;2023-02-15T04:54:42;24.30;;;13.70;;
5175;SDS011;2607;50.934;6.934;2023-02-15T04:57:08;23.97;;;14.60;;
5175;SDS011;2607;50.934;6.934;2023-02-15T04:59:34;21.00;;;12.93;;
5175;SDS011;2607;50.934;6.934;2023-02-15T05:01:59;23.13;;;13.60;;
5175;SDS011;2607;50.934;6.934;2023-02-15T05:04:25;24.60;;;15.10;;
5175;SDS011;2607;50.934;6.934;2023-02-15T05:06:51;20.33;;;13.10;;
5175;SDS011;2607;50.934;6.934;2023-02-15T05:09:16;22.77;;;15.00;;
5175;SDS011;2607;50.934;6.934;2023-02-15T05:11:42;19.30;;;12.77;;
5175;SDS011;2607;50.934;6.934;2023-02-15T05:14:07;22.77;;;15.00;;
5175;SDS011;2607;50.934;6.934;2023-02-15T05:16:33;21.77;;;13.07;;
5175;SDS011;2607;50.934;6.934;2023-02-15T05:18:58;23.90;;;14.23;;
5175;SDS011;2607;50.934;6.934;2023-02-15T05:21:24;22.13;;;13.80;;
5175;SDS011;2607;50.934;6.934;2023-02-15T05:23:50;21.97;;;14.17;;
5175;SDS011;2607;50.934;6.934;2023-02-15T05:26:19;21.60;;;14.30;;
5175;SDS011;2607;50.934;6.934;2023-02-15T05:29:05;20.13;;;12.97;;
5175;SDS011;2607;50.934;6.934;2023-02-15T05:31:31;19.77;;;13.10;;
5175;SDS011;2607;50.934;6.934;2023-02-15T05:33:57;20.90;;;13.40;;
5175;SDS011;2607;50.934;6.934;2023-02-15T05:36:22;21.50;;;12.90;;
5175;SDS011;2607;50.934;6.934;2023-02-15T05:38:48;21.37;;;13.53;;
5175;SDS011;2607;50.934;6.934;2023-02-15T05:41:14;24.57;;;14.77;;
5175;SDS011;2607;50.934;6.934;2023-02-15T05:43:39;21.97;;;13.87;;
5175;SDS011;2607;50.934;6.934;2023-02-15T05:46:05;19.50;;;13.17;;
5175;SDS011;2607;50.934;6.934;2023-02-15T05:48:31;20.27;;;13.27;;
5175;SDS011;2607;50.934;6.934;2023-02-15T05:51:00;20.57;;;13.83;;
5175;SDS011;2607;50.934;6.934;2023-02-15T05:53:27;19.63;;;13.13;;
5175;SDS011;2607;50.934;6.934;2023-02-15T05:55:54;18.57;;;12.97;;
5175;SDS011;2607;50.934;6.934;2023-02-15T05:58:24;19.27;;;12.80;;
5175;SDS011;2607;50.934;6.934;2023-02-15T06:00:50;20.20;;;13.57;;
5175;SDS011;2607;50.934;6.934;2023-02-15T06:03:16;20.17;;;13.23;;
5175;SDS011;2607;50.934;6.934;2023-02-15T06:05:41;19.30;;;13.53;;
5175;SDS011;2607;50.934;6.934;2023-02-15T06:08:07;20.23;;;12.23;;
5175;SDS011;2607;50.934;6.934;2023-02-15T06:10:32;23.17;;;13.00;;
5175;SDS011;2607;50.934;6.934;2023-02-15T06:12:58;20.77;;;13.63;;
5175;SDS011;2607;50.934;6.934;2023-02-15T06:15:23;21.83;;;13.90;;
5175;SDS011;2607;50.934;6.934;2023-02-15T06:17:49;21.57;;;13.53;;
5175;SDS011;2607;50.934;6.934;2023-02-15T06:20:14;23.40;;;13.57;;
5175;SDS011;2607;50.934;6.934;2023-02-15T06:22:40;19.60;;;12.67;;
5175;SDS011;2607;50.934;6.934;2023-02-15T06:25:06;21.43;;;12.83;;
5175;SDS011;2607;50.934;6.934;2023-02-15T06:27:34;20.50;;;14.30;;
5175;SDS011;2607;50.934;6.934;2023-02-15T06:30:00;21.67;;;13.07;;
5175;SDS011;2607;50.934;6.934;2023-02-15T06:32:26;20.13;;;13.10;;
5175;SDS011;2607;50.934;6.934;2023-02-15T06:34:51;19.07;;;12.37;;
5175;SDS011;2607;50.934;6.934;2023-02-15T06:37:17;17.33;;;11.87;;
5175;SDS011;2607;50.934;6.934;2023-02-15T06:39:42;18.00;;;12.50;;
5175;SDS011;2607;50.934;6.934;2023-02-15T06:42:09;19.90;;;12.73;;
5175;SDS011;2607;50.934;6.934;2023-02-15T06:44:34;19.33;;;13.40;;
5175;SDS011;2607;50.934;6.934;2023-02-15T06:47:00;18.83;;;12.27;;
5175;SDS011;2607;50.934;6.934;2023-02-15T06:49:25;21.30;;;13.10;;
5175;SDS011;2607;50.934;6.934;2023-02-15T06:51:51;18.13;;;12.87;;
5175;SDS011;2607;50.934;6.934;2023-02-15T06:54:17;20.30;;;13.10;;
5175;SDS011;2607;50.934;6.934;2023-02-15T06:56:42;19.77;;;12.80;;
5175;SDS011;2607;50.934;6.934;2023-02-15T06:59:08;18.13;;;11.57;;
5175;SDS011;2607;50.934;6.934;2023-02-15T07:01:34;20.00;;;12.53;;
5175;SDS011;2607;50.934;6.934;2023-02-15T07:04:01;19.17;;;12.10;;
5175;SDS011;2607;50.934;6.934;2023-02-15T07:06:30;21.27;;;12.57;;
5175;SDS011;2607;50.934;6.934;2023-02-15T07:08:58;17.70;;;11.03;;
5175;SDS011;2607;50.934;6.934;2023-02-15T07:11:24;17.97;;;11.60;;
5175;SDS011;2607;50.934;6.934;2023-02-15T07:14:08;14.93;;;10.77;;
5175;SDS011;2607;50.934;6.934;2023-02-15T07:16:34;16.30;;;11.57;;
5175;SDS011;2607;50.934;6.934;2023-02-15T07:18:59;17.80;;;11.43;;
5175;SDS011;2607;50.934;6.934;2023-02-15T07:21:25;21.63;;;13.17;;
5175;SDS011;2607;50.934;6.934;2023-02-15T07:23:51;19.33;;;13.10;;
5175;SDS011;2607;50.934;6.934;2023-02-15T07:26:16;20.00;;;13.20;;
5175;SDS011;2607;50.934;6.934;2023-02-15T07:28:42;17.63;;;12.30;;
5175;SDS011;2607;50.934;6.934;2023-02-15T07:31:07;15.53;;;11.03;;
5175;SDS011;2607;50.934;6.934;2023-02-15T07:33:33;16.70;;;11.23;;
5175;SDS011;2607;50.934;6.934;2023-02-15T07:36:00;15.60;;;11.10;;
5175;SDS011;2607;50.934;6.934;2023-02-15T07:38:34;17.00;;;11.07;;
5175;SDS011;2607;50.934;6.934;2023-02-15T07:41:01;15.70;;;10.63;;
5175;SDS011;2607;50.934;6.934;2023-02-15T07:43:35;15.63;;;11.33;;
5175;SDS011;2607;50.934;6.934;2023-02-15T07:46:02;16.57;;;11.57;;
5175;SDS011;2607;50.934;6.934;2023-02-15T07:48:29;18.90;;;11.80;;
5175;SDS011;2607;50.934;6.934;2023-02-15T07:50:59;14.20;;;10.97;;
5175;SDS011;2607;50.934;6.934;2023-02-15T07:53:28;16.03;;;11.70;;
5175;SDS011;2607;50.934;6.934;2023-02-15T07:55:54;19.00;;;11.53;;
5175;SDS011;2607;50.934;6.934;2023-02-15T07:58:27;16.57;;;11.83;;
5175;SDS011;2607;50.934;6.934;2023-02-15T08:01:11;15.40;;;10.63;;
5175;SDS011;2607;50.934;6.934;2023-02-15T08:03:37;13.23;;;10.87;;
5175;SDS011;2607;50.934;6.934;2023-02-15T08:06:02;15.67;;;11.20;;
5175;SDS011;2607;50.934;6.934;2023-02-15T08:08:28;16.20;;;11.20;;
5175;SDS011;2607;50.934;6.934;2023-02-15T08:10:58;17.60;;;11.60;;
5175;SDS011;2607;50.934;6.934;2023-02-15T08:13:46;15.50;;;11.17;;
5175;SDS011;2607;50.934;6.934;2023-02-15T08:16:26;17.53;;;11.73;;
5175;SDS011;2607;50.934;6.934;2023-02-15T08:18:59;15.30;;;10.20;;
5175;SDS011;2607;50.934;6.934;2023-02-15T08:21:27;15.50;;;11.00;;
5175;SDS011;2607;50.934;6.934;2023-02-15T08:23:54;15.50;;;11.10;;
5175;SDS011;2607;50.934;6.934;2023-02-15T08:26:21;16.10;;;10.70;;
5175;SDS011;2607;50.934;6.934;2023-02-15T08:28:47;17.27;;;12.17;;
5175;SDS011;2607;50.934;6.934;2023-02-15T08:31:13;14.13;;;10.20;;
5175;SDS011;2607;50.934;6.934;2023-02-15T08:33:40;18.57;;;11.37;;
5175;SDS011;2607;50.934;6.934;2023-02-15T08:36:10;16.00;;;11.60;;
5175;SDS011;2607;50.934;6.934;2023-02-15T08:38:38;17.23;;;10.90;;
5175;SDS011;2607;50.934;6.934;2023-02-15T08:43:42;16.23;;;11.63;;
5175;SDS011;2607;50.934;6.934;2023-02-15T08:46:08;11.30;;;9.40;;
5175;SDS011;2607;50.934;6.934;2023-02-15T08:48:35;15.03;;;10.67;;
5175;SDS011;2607;50.934;6.934;2023-02-15T08:51:19;13.60;;;10.50;;
5175;SDS011;2607;50.934;6.934;2023-02-15T08:53:47;15.60;;;11.00;;
5175;SDS011;2607;50.934;6.934;2023-02-15T08:56:14;15.97;;;11.53;;
5175;SDS011;2607;50.934;6.934;2023-02-15T08:58:41;12.27;;;10.03;;
5175;SDS011;2607;50.934;6.934;2023-02-15T09:01:10;15.43;;;10.30;;
5175;SDS011;2607;50.934;6.934;2023-02-15T09:03:45;14.43;;;10.77;;
5175;SDS011;2607;50.934;6.934;2023-02-15T09:06:17;14.50;;;10.53;;
5175;SDS011;2607;50.934;6.934;2023-02-15T09:08:43;15.47;;;11.67;;
5175;SDS011;2607;50.934;6.934;2023-02-15T09:11:09;14.20;;;10.00;;
5175;SDS011;2607;50.934;6.934;2023-02-15T09:13:37;16.87;;;10.73;;
5175;SDS011;2607;50.934;6.934;2023-02-15T09:16:05;14.23;;;10.70;;
5175;SDS011;2607;50.934;6.934;2023-02-15T09:18:33;19.67;;;10.57;;
5175;SDS011;2607;50.934;6.934;2023-02-15T09:21:04;14.33;;;10.50;;
5175;SDS011;2607;50.934;6.934;2023-02-15T09:23:35;15.07;;;11.17;;
5175;SDS011;2607;50.934;6.934;2023-02-15T09:26:02;15.43;;;10.47;;
5175;SDS011;2607;50.934;6.934;2023-02-15T09:28:28;15.00;;;10.70;;
5175;SDS011;2607;50.934;6.934;2023-02-15T09:30:54;14.67;;;10.87;;
5175;SDS011;2607;50.934;6.934;2023-02-15T09:33:20;11.90;;;9.53;;
5175;SDS011;2607;50.934;6.934;2023-02-15T09:35:46;18.60;;;10.63;;
5175;SDS011;2607;50.934;6.934;2023-02-15T09:38:12;12.17;;;9.17;;
5175;SDS011;2607;50.934;6.934;2023-02-15T09:40:41;15.27;;;10.93;;
5175;SDS011;2607;50.934;6.934;2023-02-15T09:43:38;16.63;;;10.23;;
5175;SDS011;2607;50.934;6.934;2023-02-15T09:48:48;11.30;;;9.20;;
5175;SDS011;2607;50.934;6.934;2023-02-15T09:51:31;16.67;;;11.13;;
5175;SDS011;2607;50.934;6.934;2023-02-15T09:54:27;12.27;;;9.97;;
5175;SDS011;2607;50.934;6.934;2023-02-15T09:57:08;13.57;;;10.20;;
5175;SDS011;2607;50.934;6.934;2023-02-15T09:59:54;11.17;;;9.50;;
5175;SDS011;2607;50.934;6.934;2023-02-15T10:03:05;14.33;;;10.53;;
5175;SDS011;2607;50.934;6.934;2023-02-15T10:05:37;16.80;;;10.60;;
5175;SDS011;2607;50.934;6.934;2023-02-15T10:08:33;12.93;;;9.87;;
5175;SDS011;2607;50.934;6.934;2023-02-15T10:11:11;12.07;;;9.87;;
5175;SDS011;2607;50.934;6.934;2023-02-15T10:16:51;14.43;;;10.00;;
5175;SDS011;2607;50.934;6.934;2023-02-15T10:22:37;19.00;;;12.57;;
5175;SDS011;2607;50.934;6.934;2023-02-15T10:25:15;16.33;;;11.63;;
5175;SDS011;2607;50.934;6.934;2023-02-15T10:27:54;16.60;;;11.20;;
5175;SDS011;2607;50.934;6.934;2023-02-15T10:30:25;14.60;;;10.90;;
5175;SDS011;2607;50.934;6.934;2023-02-15T10:33:08;15.33;;;11.20;;
5175;SDS011;2607;50.934;6.934;2023-02-15T10:36:05;13.50;;;10.50;;
5175;SDS011;2607;50.934;6.934;2023-02-15T10:39:00;19.83;;;11.03;;
5175;SDS011;2607;50.934;6.934;2023-02-15T10:41:43;14.57;;;10.57;;
5175;SDS011;2607;50.934;6.934;2023-02-15T10:47:23;13.43;;;10.27;;
5175;SDS011;2607;50.934;6.934;2023-02-15T11:00:52;14.90;;;11.47;;
5175;SDS011;2607;50.934;6.934;2023-02-15T11:03:40;21.50;;;10.27;;
5175;SDS011;2607;50.934;6.934;2023-02-15T11:06:19;15.63;;;10.80;;
5175;SDS011;2607;50.934;6.934;2023-02-15T11:08:50;13.23;;;9.87;;
5175;SDS011;2607;50.934;6.934;2023-02-15T11:11:21;13.63;;;11.07;;
5175;SDS011;2607;50.934;6.934;2023-02-15T11:13:56;12.57;;;10.73;;
5175;SDS011;2607;50.934;6.934;2023-02-15T11:16:32;12.97;;;9.50;;
5175;SDS011;2607;50.934;6.934;2023-02-15T11:21:40;13.50;;;10.43;;
5175;SDS011;2607;50.934;6.934;2023-02-15T11:24:11;16.33;;;11.40;;
5175;SDS011;2607;50.934;6.934;2023-02-15T11:26:54;11.77;;;9.93;;
5175;SDS011;2607;50.934;6.934;2023-02-15T11:32:24;16.73;;;10.50;;
5175;SDS011;2607;50.934;6.934;2023-02-15T11:34:51;13.80;;;10.90;;
5175;SDS011;2607;50.934;6.934;2023-02-15T11:37:23;16.77;;;10.63;;
5175;SDS011;2607;50.934;6.934;2023-02-15T11:40:15;13.90;;;11.03;;
5175;SDS011;2607;50.934;6.934;2023-02-15T11:42:49;15.20;;;11.57;;
5175;SDS011;2607;50.934;6.934;2023-02-15T11:45:22;19.33;;;13.30;;
5175;SDS011;2607;50.934;6.934;2023-02-15T11:47:56;12.30;;;10.30;;
5175;SDS011;2607;50.934;6.934;2023-02-15T11:50:24;14.97;;;10.03;;
5175;SDS011;2607;50.934;6.934;2023-02-15T11:52:59;19.87;;;10.93;;
5175;SDS011;2607;50.934;6.934;2023-02-15T11:55:31;13.97;;;11.20;;
5175;SDS011;2607;50.934;6.934;2023-02-15T12:00:37;17.00;;;10.80;;
5175;SDS011;2607;50.934;6.934;2023-02-15T12:03:12;18.53;;;10.83;;
5175;SDS011;2607;50.934;6.934;2023-02-15T12:05:46;12.93;;;10.73;;
5175;SDS011;2607;50.934;6.934;2023-02-15T12:08:21;20.23;;;10.60;;
5175;SDS011;2607;50.934;6.934;2023-02-15T12:10:56;14.87;;;11.20;;
5175;SDS011;2607;50.934;6.934;2023-02-15T12:13:27;13.47;;;9.73;;
5175;SDS011;2607;50.934;6.934;2023-02-15T12:15:53;12.40;;;10.10;;
5175;SDS011;2607;50.934;6.934;2023-02-15T12:18:33;18.07;;;11.30;;
5175;SDS011;2607;50.934;6.934;2023-02-15T12:21:05;19.03;;;10.77;;
5175;SDS011;2607;50.934;6.934;2023-02-15T12:23:41;13.03;;;10.40;;
5175;SDS011;2607;50.934;6.934;2023-02-15T12:26:22;11.30;;;9.80;;
5175;SDS011;2607;50.934;6.934;2023-02-15T12:28:58;16.07;;;11.43;;
5175;SDS011;2607;50.934;6.934;2023-02-15T12:34:09;15.13;;;11.20;;
5175;SDS011;2607;50.934;6.934;2023-02-15T12:36:46;14.17;;;11.23;;
5175;SDS011;2607;50.934;6.934;2023-02-15T12:39:20;16.20;;;12.40;;
5175;SDS011;2607;50.934;6.934;2023-02-15T12:41:57;12.40;;;9.93;;
5175;SDS011;2607;50.934;6.934;2023-02-15T12:44:31;10.87;;;9.70;;
5175;SDS011;2607;50.934;6.934;2023-02-15T12:49:32;13.83;;;10.57;;
5175;SDS011;2607;50.934;6.934;2023-02-15T12:52:03;16.27;;;10.67;;
5175;SDS011;2607;50.934;6.934;2023-02-15T12:54:47;15.20;;;10.67;;
5175;SDS011;2607;50.934;6.934;2023-02-15T12:57:14;13.10;;;9.83;;
5175;SDS011;2607;50.934;6.934;2023-02-15T12:59:51;11.10;;;9.10;;
5175;SDS011;2607;50.934;6.934;2023-02-15T13:02:23;11.53;;;10.00;;
5175;SDS011;2607;50.934;6.934;2023-02-15T13:04:49;12.77;;;10.70;;
5175;SDS011;2607;50.934;6.934;2023-02-15T13:07:16;11.77;;;9.90;;
5175;SDS011;2607;50.934;6.934;2023-02-15T13:09:42;12.80;;;10.87;;
5175;SDS011;2607;50.934;6.934;2023-02-15T13:12:16;13.10;;;10.97;;
5175;SDS011;2607;50.934;6.934;2023-02-15T13:14:45;18.40;;;11.70;;
5175;SDS011;2607;50.934;6.934;2023-02-15T13:17:13;17.20;;;12.10;;
5175;SDS011;2607;50.934;6.934;2023-02-15T13:19:46;16.90;;;12.80;;
5175;SDS011;2607;50.934;6.934;2023-02-15T13:22:19;16.00;;;12.00;;
5175;SDS011;2607;50.934;6.934;2023-02-15T13:24:50;14.13;;;11.00;;
5175;SDS011;2607;50.934;6.934;2023-02-15T13:27:21;12.30;;;10.83;;
5175;SDS011;2607;50.934;6.934;2023-02-15T13:29:51;13.00;;;11.30;;
5175;SDS011;2607;50.934;6.934;2023-02-15T13:32:36;15.20;;;10.90;;
5175;SDS011;2607;50.934;6.934;2023-02-15T13:35:05;13.50;;;10.10;;
5175;SDS011;2607;50.934;6.934;2023-02-15T13:37:37;12.60;;;9.97;;
5175;SDS011;2607;50.934;6.934;2023-02-15T13:42:37;14.53;;;11.13;;
5175;SDS011;2607;50.934;6.934;2023-02-15T13:53:31;12.63;;;10.57;;
5175;SDS011;2607;50.934;6.934;2023-02-15T14:04:03;11.30;;;9.97;;
5175;SDS011;2607;50.934;6.934;2023-02-15T14:07:02;10.83;;;9.53;;
5175;SDS011;2607;50.934;6.934;2023-02-15T14:09:53;13.60;;;10.10;;
5175;SDS011;2607;50.934;6.934;2023-02-15T14:26:41;12.87;;;9.87;;
5175;SDS011;2607;50.934;6.934;2023-02-15T14:32:29;11.37;;;9.60;;
5175;SDS011;2607;50.934;6.934;2023-02-15T14:35:00;15.60;;;12.40;;
5175;SDS011;2607;50.934;6.934;2023-02-15T14:43:16;15.10;;;11.20;;
5175;SDS011;2607;50.934;6.934;2023-02-15T14:46:01;17.00;;;12.30;;
5175;SDS011;2607;50.934;6.934;2023-02-15T14:48:45;14.17;;;10.67;;
5175;SDS011;2607;50.934;6.934;2023-02-15T14:52:13;13.40;;;11.50;;
5175;SDS011;2607;50.934;6.934;2023-02-15T14:54:53;14.87;;;11.20;;
5175;SDS011;2607;50.934;6.934;2023-02-15T14:59:36;14.17;;;10.83;;
5175;SDS011;2607;50.934;6.934;2023-02-15T15:04:35;13.50;;;9.43;;
5175;SDS011;2607;50.934;6.934;2023-02-15T15:09:48;13.83;;;10.63;;
5175;SDS011;2607;50.934;6.934;2023-02-15T15:12:41;13.00;;;10.50;;
5175;SDS011;2607;50.934;6.934;2023-02-15T15:15:10;12.53;;;10.43;;
5175;SDS011;2607;50.934;6.934;2023-02-15T15:18:04;13.00;;;10.57;;
5175;SDS011;2607;50.934;6.934;2023-02-15T15:28:10;14.00;;;10.87;;
5175;SDS011;2607;50.934;6.934;2023-02-15T15:42:06;15.27;;;12.17;;
5175;SDS011;2607;50.934;6.934;2023-02-15T15:47:58;18.77;;;13.47;;
5175;SDS011;2607;50.934;6.934;2023-02-15T15:50:46;21.43;;;14.17;;
5175;SDS011;2607;50.934;6.934;2023-02-15T15:53:19;25.73;;;11.90;;
5175;SDS011;2607;50.934;6.934;2023-02-15T15:55:49;17.47;;;10.30;;
5175;SDS011;2607;50.934;6.934;2023-02-15T15:58:19;15.33;;;11.40;;
5175;SDS011;2607;50.934;6.934;2023-02-15T16:00:49;18.80;;;12.80;;
5175;SDS011;2607;50.934;6.934;2023-02-15T16:03:49;19.37;;;11.40;;
5175;SDS011;2607;50.934;6.934;2023-02-15T16:09:21;16.53;;;11.43;;
5175;SDS011;2607;50.934;6.934;2023-02-15T16:11:50;15.33;;;12.93;;
5175;SDS011;2607;50.934;6.934;2023-02-15T16:14:31;14.40;;;11.73;;
5175;SDS011;2607;50.934;6.934;2023-02-15T16:17:02;16.10;;;11.17;;
5175;SDS011;2607;50.934;6.934;2023-02-15T16:19:32;14.77;;;11.57;;
5175;SDS011;2607;50.934;6.934;2023-02-15T16:22:07;20.57;;;13.30;;
5175;SDS011;2607;50.934;6.934;2023-02-15T16:29:43;17.23;;;12.70;;
5175;SDS011;2607;50.934;6.934;2023-02-15T16:32:22;19.93;;;13.03;;
5175;SDS011;2607;50.934;6.934;2023-02-15T16:34:59;20.53;;;11.63;;
5175;SDS011;2607;50.934;6.934;2023-02-15T16:37:27;15.53;;;11.80;;
5175;SDS011;2607;50.934;6.934;2023-02-15T16:39:58;13.60;;;11.60;;
5175;SDS011;2607;50.934;6.934;2023-02-15T16:42:24;17.10;;;12.83;;
5175;SDS011;2607;50.934;6.934;2023-02-15T16:45:35;14.70;;;12.30;;
5175;SDS011;2607;50.934;6.934;2023-02-15T16:47:42;16.73;;;12.17;;
5175;SDS011;2607;50.934;6.934;2023-02-15T16:50:22;18.60;;;13.63;;
5175;SDS011;2607;50.934;6.934;2023-02-15T16:52:51;14.63;;;12.03;;
5175;SDS011;2607;50.934;6.934;2023-02-15T16:55:20;20.47;;;12.10;;
5175;SDS011;2607;50.934;6.934;2023-02-15T16:57:47;16.00;;;11.47;;
5175;SDS011;2607;50.934;6.934;2023-02-15T17:00:19;15.17;;;11.57;;
5175;SDS011;2607;50.934;6.934;2023-02-15T17:03:20;13.47;;;10.93;;
5175;SDS011;2607;50.934;6.934;2023-02-15T17:05:49;15.87;;;11.50;;
5175;SDS011;2607;50.934;6.934;2023-02-15T17:08:41;14.23;;;10.80;;
5175;SDS011;2607;50.934;6.934;2023-02-15T17:14:27;14.53;;;12.03;;
5175;SDS011;2607;50.934;6.934;2023-02-15T17:19:18;15.03;;;11.90;;
5175;SDS011;2607;50.934;6.934;2023-02-15T17:21:51;15.50;;;12.30;;
5175;SDS011;2607;50.934;6.934;2023-02-15T17:24:31;16.23;;;12.50;;
5175;SDS011;2607;50.934;6.934;2023-02-15T17:27:05;17.70;;;12.57;;
5175;SDS011;2607;50.934;6.934;2023-02-15T17:29:50;16.80;;;11.53;;
5175;SDS011;2607;50.934;6.934;2023-02-15T17:32:22;16.17;;;12.17;;
5175;SDS011;2607;50.934;6.934;2023-02-15T17:37:24;16.30;;;12.10;;
5175;SDS011;2607;50.934;6.934;2023-02-15T17:39:55;15.60;;;12.47;;
5175;SDS011;2607;50.934;6.934;2023-02-15T17:42:22;18.53;;;12.83;;
5175;SDS011;2607;50.934;6.934;2023-02-15T17:44:48;22.33;;;13.23;;
5175;SDS011;2607;50.934;6.934;2023-02-15T17:47:15;20.13;;;13.67;;